Time;durP1;ratioP1;P1;durP2;ratioP2;P2;SDS_P1;SDS_P2;PMS_P1;PMS_P2;Temp;Humidity;BMP_temperature;BMP_pressure;BME280_temperature;BME280_humidity;BME280_pressure;Samples;Min_cycle;Max_cycle;Signal;HPM_P1;HPM_P2
2022/01/20 00:00:19;;;;;;;20.55;18.35;;;;;;;18.87;40.94;101746.03;5035522;28;20052;-82
2022/01/20 00:02:56;;;;;;;19.27;17.25;;;;;;;18.88;41.04;101769.19;5034180;28;20117;-82
2022/01/20 00:27:25;;;;;;;19.85;17.75;;;;;;;18.93;39.82;101802.81;5032848;28;20080;-82
2022/01/20 00:32:34;;;;;;;20.45;18.23;;;;;;;18.95;39.56;101789.28;5016431;28;20049;-82
2022/01/20 00:37:31;;;;;;;19.20;17.20;;;;;;;18.98;39.39;101795.28;5033626;28;20053;-82
2022/01/20 00:39:59;;;;;;;19.05;17.15;;;;;;;19.00;39.44;101793.38;5032787;28;20058;-82
2022/01/20 00:42:27;;;;;;;19.40;17.40;;;;;;;19.01;39.34;101791.56;5048415;28;20563;-82
2022/01/20 00:44:55;;;;;;;21.23;16.95;;;;;;;19.03;39.28;101790.47;5044772;28;20061;-82
2022/01/20 00:47:23;;;;;;;19.63;17.63;;;;;;;19.05;39.14;101793.06;4996589;28;20513;-82
2022/01/20 00:49:50;;;;;;;19.50;17.48;;;;;;;19.07;39.13;101795.63;5014870;28;20045;-82
2022/01/20 00:52:18;;;;;;;19.58;17.48;;;;;;;19.09;39.00;101796.38;5014724;28;20378;-82
2022/01/20 00:54:45;;;;;;;19.42;17.33;;;;;;;19.08;38.87;101784.81;5013704;28;20057;-81
2022/01/20 00:57:13;;;;;;;19.67;17.00;;;;;;;19.11;38.87;101786.38;5013387;28;20056;-81
2022/01/20 00:59:40;;;;;;;18.27;15.60;;;;;;;19.12;38.86;101775.56;5014408;28;20045;-80
2022/01/20 01:02:10;;;;;;;18.10;16.20;;;;;;;19.12;38.90;101783.63;5013435;28;20060;-80
2022/01/20 01:04:38;;;;;;;20.08;17.95;;;;;;;19.15;38.58;101793.25;5014311;28;20046;-80
2022/01/20 01:09:36;;;;;;;19.48;16.80;;;;;;;19.15;38.59;101788.75;5013161;28;20494;-80
2022/01/20 01:12:07;;;;;;;20.35;17.60;;;;;;;19.16;38.60;101777.06;4996893;28;20521;-81
2022/01/20 01:14:35;;;;;;;17.95;15.80;;;;;;;19.17;38.72;101776.09;5013141;28;20050;-81
2022/01/20 01:24:45;;;;;;;16.65;14.85;;;;;;;19.18;38.79;101779.63;5032973;28;20045;-81
2022/01/20 01:27:13;;;;;;;18.50;16.55;;;;;;;19.18;38.56;101783.19;5032261;28;20053;-81
2022/01/20 01:32:11;;;;;;;16.88;15.07;;;;;;;19.17;38.83;101781.47;5032737;28;20054;-81
2022/01/20 01:34:40;;;;;;;18.02;16.23;;;;;;;19.17;38.77;101777.94;5031852;28;20528;-81
2022/01/20 01:37:24;;;;;;;17.55;15.80;;;;;;;19.18;38.78;101790.38;5031795;28;20049;-81
2022/01/20 01:39:52;;;;;;;17.65;15.75;;;;;;;19.15;38.96;101772.66;5033727;28;20057;-81
2022/01/20 01:42:48;;;;;;;18.23;16.33;;;;;;;19.16;38.97;101789.59;5031932;28;20421;-81
2022/01/20 01:45:19;;;;;;;17.70;15.93;;;;;;;19.16;38.89;101779.75;5032165;28;20061;-81
2022/01/20 01:47:47;;;;;;;19.30;17.35;;;;;;;19.16;38.94;101776.19;5033613;28;20060;-81
2022/01/20 01:50:20;;;;;;;17.85;16.02;;;;;;;19.15;38.98;101767.28;5031947;28;20053;-81
2022/01/20 01:52:48;;;;;;;16.25;14.55;;;;;;;19.14;38.95;101770.94;5032741;28;20049;-81
2022/01/20 01:55:15;;;;;;;18.25;16.45;;;;;;;19.15;39.01;101778.00;5032302;28;20493;-80
2022/01/20 01:57:44;;;;;;;17.90;16.00;;;;;;;19.14;38.95;101781.66;5032136;28;20049;-80
2022/01/20 02:00:16;;;;;;;17.33;15.52;;;;;;;19.15;39.05;101780.69;5031645;28;20374;-80
2022/01/20 02:02:50;;;;;;;18.10;15.45;;;;;;;19.15;39.11;101769.09;5031842;28;20481;-80
2022/01/20 02:05:23;;;;;;;16.85;15.18;;;;;;;19.14;39.10;101768.25;5031640;28;20078;-80
2022/01/20 02:18:55;;;;;;;16.30;14.65;;;;;;;19.14;39.25;101737.88;5032040;28;20493;-80
2022/01/20 02:21:45;;;;;;;17.88;16.05;;;;;;;19.12;39.54;101731.75;5031223;28;20054;-82
2022/01/20 02:24:13;;;;;;;17.15;15.45;;;;;;;19.10;39.66;101723.81;5031791;28;20045;-82
2022/01/20 02:26:41;;;;;;;17.77;16.08;;;;;;;19.11;39.78;101722.84;5032306;28;20057;-82
2022/01/20 02:29:11;;;;;;;19.50;16.80;;;;;;;19.08;39.73;101717.69;5032242;28;20524;-82
2022/01/20 02:31:39;;;;;;;19.23;16.40;;;;;;;19.09;39.96;101724.78;5032660;28;20056;-82
2022/01/20 02:34:12;;;;;;;17.23;15.38;;;;;;;19.08;39.91;101727.56;5032380;28;20049;-82
2022/01/20 02:36:44;;;;;;;17.55;15.75;;;;;;;19.07;39.67;101713.28;5032205;28;20065;-82
2022/01/20 02:39:29;;;;;;;17.75;15.77;;;;;;;19.09;39.33;101719.41;5031815;28;20053;-82
2022/01/20 02:44:52;;;;;;;18.13;16.15;;;;;;;19.07;39.42;101721.34;5032278;28;20049;-82
2022/01/20 02:47:30;;;;;;;17.20;15.40;;;;;;;19.09;39.46;101723.94;5031767;28;20421;-83
2022/01/20 02:49:58;;;;;;;17.70;15.90;;;;;;;19.07;39.49;101715.97;5032261;28;20056;-82
2022/01/20 02:52:27;;;;;;;17.75;15.95;;;;;;;19.07;39.47;101718.66;5015396;28;20057;-82
2022/01/20 02:54:55;;;;;;;17.30;15.57;;;;;;;19.07;39.51;101724.00;5032945;28;20053;-82
2022/01/20 02:57:24;;;;;;;16.65;14.93;;;;;;;19.05;39.28;101728.66;5031222;28;20061;-82
2022/01/20 02:59:52;;;;;;;16.50;14.90;;;;;;;19.05;39.30;101723.28;5030989;28;20125;-82
2022/01/20 03:02:19;;;;;;;17.10;15.30;;;;;;;19.04;39.40;101726.94;5031814;28;20060;-81
2022/01/20 03:04:51;;;;;;;16.60;14.82;;;;;;;19.04;39.34;101718.88;5032990;28;20053;-81
2022/01/20 03:07:27;;;;;;;17.27;15.57;;;;;;;19.02;39.23;101718.97;5031658;28;20057;-81
2022/01/20 03:09:55;;;;;;;17.27;15.48;;;;;;;19.03;39.22;101720.69;5032127;28;20050;-81
2022/01/20 03:12:22;;;;;;;15.57;13.95;;;;;;;19.03;39.21;101709.09;5035326;28;20050;-81
2022/01/20 03:14:50;;;;;;;15.93;14.32;;;;;;;19.02;39.25;101707.38;5034941;28;20405;-82
2022/01/20 03:17:18;;;;;;;15.73;14.18;;;;;;;19.01;39.35;101709.22;5035553;28;20049;-81
2022/01/20 03:19:45;;;;;;;15.02;13.57;;;;;;;19.02;39.20;101707.38;5035167;28;20058;-81
2022/01/20 03:22:13;;;;;;;16.75;14.95;;;;;;;19.01;39.32;101703.00;5018732;28;20476;-82
2022/01/20 03:24:41;;;;;;;15.73;14.13;;;;;;;19.01;39.31;101705.69;5036704;28;20419;-82
2022/01/20 03:27:09;;;;;;;15.88;14.27;;;;;;;19.00;39.16;101690.56;5034781;28;20049;-82
2022/01/20 03:29:36;;;;;;;15.68;14.00;;;;;;;19.00;39.12;101687.88;5034819;28;20049;-80
2022/01/20 03:32:05;;;;;;;15.27;13.68;;;;;;;19.00;39.10;101691.41;5034360;28;20057;-80
2022/01/20 03:34:33;;;;;;;15.35;13.88;;;;;;;19.00;39.23;101679.81;5035943;28;20060;-80
2022/01/20 03:37:05;;;;;;;14.63;13.23;;;;;;;19.00;39.14;101679.81;5034978;28;20049;-80
2022/01/20 03:39:42;;;;;;;14.93;13.15;;;;;;;19.00;39.23;101682.50;5034527;28;20049;-80
2022/01/20 03:42:09;;;;;;;13.93;12.52;;;;;;;18.99;39.01;101681.63;5034067;28;20143;-80
2022/01/20 03:44:36;;;;;;;15.13;13.73;;;;;;;18.99;39.17;101673.56;5035962;28;20041;-81
2022/01/20 03:47:04;;;;;;;14.93;13.43;;;;;;;18.99;38.96;101661.97;5034911;28;20409;-80
2022/01/20 03:52:03;;;;;;;14.05;12.63;;;;;;;18.99;38.97;101651.25;5034610;28;20068;-80
2022/01/20 03:54:32;;;;;;;14.70;13.30;;;;;;;18.99;38.67;101646.72;5033931;28;20386;-80
2022/01/20 03:57:29;;;;;;;14.27;12.77;;;;;;;19.00;38.93;101652.97;5034227;28;20076;-81
2022/01/20 04:00:31;;;;;;;13.73;12.43;;;;;;;19.01;38.94;101655.53;5034714;28;20053;-81
2022/01/20 04:03:17;;;;;;;14.30;12.90;;;;;;;19.01;38.87;101660.91;5034336;28;20061;-81
2022/01/20 04:06:03;;;;;;;14.25;12.32;;;;;;;19.02;38.97;101657.25;5034392;28;20393;-81
2022/01/20 04:08:38;;;;;;;13.18;11.98;;;;;;;19.00;38.71;101656.53;5034543;28;20054;-82
2022/01/20 04:11:09;;;;;;;12.82;11.73;;;;;;;19.01;38.85;101649.31;5033856;28;20057;-81
2022/01/20 04:13:39;;;;;;;13.73;12.43;;;;;;;19.01;38.92;101652.84;5034135;28;20064;-81
2022/01/20 04:16:38;;;;;;;12.50;11.20;;;;;;;19.02;38.94;101648.34;5019732;28;20061;-81
2022/01/20 04:19:09;;;;;;;13.02;11.80;;;;;;;19.01;38.85;101642.13;5033833;28;20049;-80
2022/01/20 04:21:39;;;;;;;13.73;12.43;;;;;;;19.00;38.80;101642.25;5035098;28;20053;-81
2022/01/20 04:24:08;;;;;;;12.48;11.38;;;;;;;19.00;38.81;101659.22;5033979;28;20049;-81
2022/01/20 04:26:38;;;;;;;13.23;11.93;;;;;;;19.01;38.81;101665.44;5016785;28;20050;-81
2022/01/20 04:29:13;;;;;;;12.48;11.27;;;;;;;19.00;38.73;101675.31;5034114;28;20049;-81
2022/01/20 04:31:43;;;;;;;12.97;11.57;;;;;;;19.02;38.69;101680.56;5017540;28;20061;-81
2022/01/20 04:34:11;;;;;;;12.77;11.57;;;;;;;19.02;38.66;101672.50;5033571;28;20049;-81
2022/01/20 04:36:42;;;;;;;13.60;12.20;;;;;;;19.01;38.77;101668.97;5033909;28;20045;-81
2022/01/20 04:39:14;;;;;;;13.52;12.15;;;;;;;19.00;38.70;101663.72;5017141;28;20057;-81
2022/01/20 04:41:42;;;;;;;12.15;10.95;;;;;;;19.01;38.54;101657.38;5033507;28;20076;-81
2022/01/20 04:44:29;;;;;;;13.15;11.55;;;;;;;19.01;38.33;101665.44;5033122;28;20056;-81
2022/01/20 04:47:10;;;;;;;12.57;11.32;;;;;;;19.00;38.71;101666.41;5033359;28;20049;-81
2022/01/20 04:57:55;;;;;;;12.52;11.23;;;;;;;18.96;38.58;101632.69;5034534;28;20104;-81
2022/01/20 05:00:22;;;;;;;12.05;10.95;;;;;;;18.95;38.56;101629.13;5032473;28;20053;-80
2022/01/20 05:03:08;;;;;;;12.50;11.35;;;;;;;18.94;38.64;101631.94;5041373;28;20053;-80
2022/01/20 05:05:36;;;;;;;11.40;10.20;;;;;;;18.93;38.75;101638.28;5032889;28;20049;-80
2022/01/20 05:08:10;;;;;;;12.48;11.27;;;;;;;18.93;38.57;101646.34;5033012;28;20524;-80
2022/01/20 05:10:39;;;;;;;12.35;11.05;;;;;;;18.91;38.75;101646.41;5029256;28;20050;-80
2022/01/20 05:13:11;;;;;;;11.68;10.57;;;;;;;18.91;38.89;101661.66;5032014;28;20053;-80
2022/01/20 05:15:40;;;;;;;12.57;11.23;;;;;;;18.90;38.74;101643.84;5032663;28;20053;-80
2022/01/20 05:18:08;;;;;;;11.63;10.52;;;;;;;18.88;38.97;101632.38;5016094;28;20061;-80
2022/01/20 05:20:36;;;;;;;11.70;10.60;;;;;;;18.89;38.73;101626.06;5032017;28;20054;-80
2022/01/20 05:23:03;;;;;;;12.50;11.15;;;;;;;18.89;38.84;101628.75;5031758;28;20061;-80
2022/01/20 05:25:30;;;;;;;12.45;11.25;;;;;;;18.90;38.59;101639.34;5031888;28;20046;-80
2022/01/20 05:27:58;;;;;;;10.73;9.73;;;;;;;18.89;38.85;101645.69;5033573;28;20045;-80
2022/01/20 05:30:25;;;;;;;11.95;10.75;;;;;;;18.89;39.08;101655.56;5032687;28;20053;-81
2022/01/20 05:33:11;;;;;;;12.25;10.68;;;;;;;18.89;38.72;101655.56;5039905;28;20060;-80
2022/01/20 05:35:39;;;;;;;11.73;10.63;;;;;;;18.89;38.74;101647.53;5031959;28;20050;-80
2022/01/20 05:38:07;;;;;;;10.65;9.65;;;;;;;18.89;38.70;101644.84;5033620;28;20053;-80
2022/01/20 05:40:35;;;;;;;10.95;9.82;;;;;;;18.89;38.81;101640.31;5032368;28;20065;-81
2022/01/20 05:43:03;;;;;;;11.60;10.50;;;;;;;18.90;38.61;101660.81;5012352;28;20058;-80
2022/01/20 05:45:36;;;;;;;12.18;11.05;;;;;;;18.89;38.62;101655.56;5012532;28;20057;-80
2022/01/20 05:48:12;;;;;;;11.52;10.43;;;;;;;18.88;38.76;101661.88;5028855;28;20057;-81
2022/01/20 05:50:59;;;;;;;12.10;10.95;;;;;;;18.89;38.74;101671.66;5020612;28;20049;-81
2022/01/20 05:53:29;;;;;;;11.75;10.63;;;;;;;18.88;38.62;101678.84;5012535;28;20501;-82
2022/01/20 05:55:59;;;;;;;12.57;11.00;;;;;;;18.88;38.80;101668.13;5012465;28;20505;-82
2022/01/20 05:58:29;;;;;;;11.10;9.93;;;;;;;18.89;38.71;101671.66;5012086;28;20054;-82
2022/01/20 06:00:56;;;;;;;11.20;10.10;;;;;;;18.89;38.68;101671.66;5012374;28;20045;-83
2022/01/20 06:03:37;;;;;;;10.18;9.27;;;;;;;18.90;38.66;101681.41;5012392;28;20061;-82
2022/01/20 06:06:12;;;;;;;11.43;10.32;;;;;;;18.88;38.58;101680.66;5029440;28;20050;-82
2022/01/20 06:08:41;;;;;;;11.18;10.07;;;;;;;18.89;38.70;101677.03;5012267;28;20528;-82
2022/01/20 06:11:10;;;;;;;11.10;9.98;;;;;;;18.89;38.63;101683.25;5016980;28;20046;-81
2022/01/20 06:13:37;;;;;;;11.30;10.30;;;;;;;18.87;38.75;101670.91;5029100;28;20060;-80
2022/01/20 06:16:06;;;;;;;11.63;10.43;;;;;;;18.86;38.71;101669.19;5031936;28;20512;-81
2022/01/20 06:18:34;;;;;;;11.20;10.13;;;;;;;18.86;39.02;101671.88;5031555;28;20053;-82
2022/01/20 06:21:02;;;;;;;10.70;9.70;;;;;;;18.87;38.59;101676.25;5032277;28;20049;-81
2022/01/20 06:23:30;;;;;;;10.88;9.88;;;;;;;18.86;38.80;101677.25;5033211;28;20050;-82
2022/01/20 06:26:04;;;;;;;11.70;10.60;;;;;;;18.86;38.85;101674.56;5032091;28;20053;-80
2022/01/20 06:28:35;;;;;;;10.05;9.10;;;;;;;18.87;38.96;101662.84;5021780;28;20098;-79
2022/01/20 06:31:04;;;;;;;9.75;8.75;;;;;;;18.87;38.81;101670.91;5011503;28;20061;-80
2022/01/20 06:33:32;;;;;;;10.98;9.88;;;;;;;18.87;38.83;101681.63;5011796;28;20050;-82
2022/01/20 06:35:59;;;;;;;17.50;9.32;;;;;;;18.88;38.81;101684.22;5011861;28;20402;-81
2022/01/20 06:38:28;;;;;;;11.35;9.73;;;;;;;18.88;38.70;101680.66;5012272;28;20516;-81
2022/01/20 06:40:58;;;;;;;11.13;10.13;;;;;;;18.88;38.86;101683.34;5011731;28;20508;-81
2022/01/20 06:43:29;;;;;;;10.38;9.20;;;;;;;18.88;38.80;101688.69;5012908;28;20061;-81
2022/01/20 06:45:56;;;;;;;10.05;8.93;;;;;;;18.87;38.88;101679.81;5015902;28;20054;-82
2022/01/20 06:48:47;;;;;;;10.20;9.20;;;;;;;18.87;38.91;101678.94;5016082;28;20054;-81
2022/01/20 06:51:29;;;;;;;9.25;8.35;;;;;;;18.87;38.91;101682.47;5015893;28;20417;-82
2022/01/20 06:53:57;;;;;;;11.13;10.02;;;;;;;18.87;38.90;101685.16;5015565;28;20073;-81
2022/01/20 06:56:25;;;;;;;10.05;9.00;;;;;;;18.85;38.57;101689.78;5015387;28;20418;-81
2022/01/20 06:59:17;;;;;;;10.77;9.77;;;;;;;18.86;38.96;101690.66;5015376;28;20054;-81
2022/01/20 07:01:47;;;;;;;9.82;8.90;;;;;;;18.84;38.74;101682.72;5015858;28;20298;-81
2022/01/20 07:04:32;;;;;;;10.75;9.80;;;;;;;18.83;38.89;101688.19;5015362;28;20054;-84
2022/01/20 07:07:04;;;;;;;10.68;9.57;;;;;;;18.80;38.98;101685.69;5015322;28;20056;-83
2022/01/20 07:09:44;;;;;;;10.82;9.73;;;;;;;18.80;39.10;101686.59;5023376;28;20046;-81
2022/01/20 07:12:22;;;;;;;11.07;10.02;;;;;;;18.77;39.15;101693.00;5022314;28;20401;-82
2022/01/20 07:14:50;;;;;;;9.70;8.77;;;;;;;18.78;39.10;101686.69;5033323;28;20053;-83
2022/01/20 07:17:17;;;;;;;10.77;9.60;;;;;;;18.78;39.00;101688.50;5035151;28;20060;-82
2022/01/20 07:19:49;;;;;;;11.60;10.38;;;;;;;18.79;39.06;101695.56;5034657;28;20057;-82
2022/01/20 07:22:18;;;;;;;10.82;9.73;;;;;;;18.77;39.34;101700.22;5034800;28;20049;-82
2022/01/20 07:24:48;;;;;;;10.75;9.75;;;;;;;18.75;39.42;101691.41;5035058;28;20495;-82
2022/01/20 07:27:31;;;;;;;11.73;10.52;;;;;;;18.74;39.35;101690.53;5034912;28;20060;-82
2022/01/20 07:30:11;;;;;;;13.48;10.38;;;;;;;18.73;39.24;101691.50;5034566;28;20053;-83
2022/01/20 07:32:40;;;;;;;11.73;10.00;;;;;;;18.72;39.52;101705.03;5034483;28;20053;-84
2022/01/20 07:35:16;;;;;;;11.40;10.23;;;;;;;18.70;40.23;101713.19;5034399;28;20516;-85
2022/01/20 07:37:44;;;;;;;13.55;10.18;;;;;;;18.67;40.35;101707.97;5034437;28;20046;-87
2022/01/20 07:40:12;;;;;;;11.73;10.38;;;;;;;18.65;40.30;101720.66;5034236;28;20132;-86
2022/01/20 07:42:40;;;;;;;12.38;10.85;;;;;;;18.60;39.84;101722.81;5035649;28;20056;-86
2022/01/20 07:45:21;;;;;;;13.80;12.40;;;;;;;18.56;38.70;101725.81;5034515;28;20119;-86
2022/01/20 07:48:08;;;;;;;14.68;13.00;;;;;;;18.50;38.63;101727.91;5034888;28;20050;-86
2022/01/20 07:50:37;;;;;;;17.27;14.73;;;;;;;18.47;37.43;101740.69;5018399;28;20045;-85
2022/01/20 07:53:05;;;;;;;21.45;19.25;;;;;;;18.42;35.83;101742.81;5018537;28;20050;-86
2022/01/20 07:55:33;;;;;;;22.90;20.60;;;;;;;18.34;35.07;101751.38;5018892;28;20386;-86
2022/01/20 07:58:04;;;;;;;22.52;20.27;;;;;;;18.31;35.07;101753.41;5034683;28;20057;-86
2022/01/20 08:00:39;;;;;;;26.83;22.27;;;;;;;18.26;34.70;101759.06;5034384;28;20049;-84
2022/01/20 08:03:08;;;;;;;25.67;22.83;;;;;;;18.22;34.61;101760.22;5034130;28;20053;-85
2022/01/20 08:05:45;;;;;;;25.90;23.15;;;;;;;18.17;34.03;101765.03;5033884;28;20054;-85
2022/01/20 08:08:14;;;;;;;25.33;22.60;;;;;;;18.12;34.09;101773.41;5034139;28;20383;-83
2022/01/20 08:10:56;;;;;;;24.83;22.13;;;;;;;18.11;34.56;101773.47;5033575;28;20053;-83
2022/01/20 08:13:25;;;;;;;27.55;22.27;;;;;;;18.10;34.63;101777.97;5033927;28;20409;-82
2022/01/20 08:15:53;;;;;;;27.30;24.05;;;;;;;18.09;34.20;101781.63;5033736;28;20049;-83
2022/01/20 08:18:26;;;;;;;26.63;23.77;;;;;;;18.06;34.21;101775.59;5033828;28;20050;-83
2022/01/20 08:20:53;;;;;;;28.98;24.00;;;;;;;18.02;34.17;101775.78;5033508;28;20409;-83
2022/01/20 08:23:21;;;;;;;26.83;23.98;;;;;;;18.00;34.01;101772.38;5033212;28;20057;-82
2022/01/20 08:25:49;;;;;;;27.45;24.23;;;;;;;17.99;34.14;101777.84;5033537;28;20072;-83
2022/01/20 08:28:20;;;;;;;27.33;24.38;;;;;;;17.96;34.21;101778.91;5066999;28;20065;-83
2022/01/20 08:30:49;;;;;;;30.70;26.75;;;;;;;17.95;34.18;101787.03;5033231;28;20049;-83
2022/01/20 08:33:17;;;;;;;28.30;25.23;;;;;;;17.93;34.33;101787.13;5032784;28;20057;-83
2022/01/20 08:35:49;;;;;;;26.92;24.13;;;;;;;17.91;34.46;101775.66;5033542;28;20053;-84
2022/01/20 08:38:33;;;;;;;21.88;19.55;;;;;;;17.94;35.53;101783.47;5032934;28;20497;-83
2022/01/20 08:41:01;;;;;;;20.42;18.42;;;;;;;17.96;36.26;101775.34;5017045;28;20049;-83
2022/01/20 08:43:28;;;;;;;20.27;18.02;;;;;;;17.99;36.43;101775.16;5033408;28;20058;-83
2022/01/20 08:45:56;;;;;;;20.25;18.13;;;;;;;18.01;36.48;101773.22;5033500;28;20053;-83
2022/01/20 08:48:25;;;;;;;19.35;17.33;;;;;;;18.03;36.68;101782.03;5032687;28;20053;-83
2022/01/20 08:51:10;;;;;;;20.50;18.40;;;;;;;18.06;36.51;101783.66;5039895;28;20512;-83
2022/01/20 08:54:03;;;;;;;19.10;17.10;;;;;;;18.09;36.63;101786.13;5033750;28;20497;-83
2022/01/20 08:56:34;;;;;;;19.15;17.17;;;;;;;18.09;36.51;101789.66;5034180;28;20033;-83
2022/01/20 08:59:05;;;;;;;19.05;17.05;;;;;;;18.10;36.67;101788.69;5032697;28;20493;-83
2022/01/20 09:01:34;;;;;;;17.73;15.85;;;;;;;18.13;36.75;101782.28;5032835;28;20453;-83
2022/01/20 09:04:02;;;;;;;19.90;17.52;;;;;;;18.13;36.72;101775.09;5032852;28;20053;-83
2022/01/20 09:06:31;;;;;;;20.88;17.38;;;;;;;18.14;36.69;101786.69;5031439;28;20049;-83
2022/01/20 09:09:20;;;;;;;18.63;16.38;;;;;;;18.14;36.79;101790.22;5033471;28;20409;-83
2022/01/20 09:17:28;;;;;;;17.17;15.02;;;;;;;18.18;37.71;101767.63;5032707;28;20045;-83
2022/01/20 09:19:57;;;;;;;18.02;15.82;;;;;;;18.19;37.33;101765.78;5016881;28;20049;-83
2022/01/20 09:22:28;;;;;;;16.67;14.55;;;;;;;18.20;37.98;101770.22;5032511;28;20061;-83
2022/01/20 09:24:56;;;;;;;17.55;15.00;;;;;;;18.20;38.14;101765.72;5032387;28;20050;-83
2022/01/20 09:27:23;;;;;;;19.10;16.17;;;;;;;18.20;38.42;101748.78;5032013;28;20057;-87
2022/01/20 09:29:50;;;;;;;36.53;30.38;;;;;;;18.04;36.29;101736.38;5066024;28;20053;-84
2022/01/20 09:32:24;;;;;;;32.85;27.73;;;;;;;17.72;36.50;101737.59;5031695;28;20049;-83
2022/01/20 09:34:52;;;;;;;36.17;29.38;;;;;;;17.48;37.04;101742.72;5032211;28;20057;-83
2022/01/20 09:37:25;;;;;;;35.65;30.30;;;;;;;17.33;37.35;101754.38;5031954;28;20056;-83
2022/01/20 09:39:53;;;;;;;40.55;33.92;;;;;;;17.18;37.46;101757.06;5032256;28;20049;-83
2022/01/20 09:42:41;;;;;;;30.17;24.95;;;;;;;17.20;39.08;101747.13;5032232;28;20072;-83
2022/01/20 09:45:09;;;;;;;27.35;20.98;;;;;;;17.31;40.29;101759.84;5015908;28;20045;-83
2022/01/20 09:47:37;;;;;;;23.55;19.10;;;;;;;17.41;40.35;101754.75;5015189;28;20045;-83
2022/01/20 09:50:19;;;;;;;22.73;19.33;;;;;;;17.48;40.67;101754.28;5040163;28;20056;-82
2022/01/20 09:53:06;;;;;;;22.50;18.98;;;;;;;17.55;40.81;101763.63;5039054;28;20056;-82
2022/01/20 09:56:00;;;;;;;20.23;18.02;;;;;;;17.63;40.86;101768.50;5032342;28;20056;-82
2022/01/20 09:58:28;;;;;;;24.05;20.50;;;;;;;17.67;41.15;101767.34;5032104;28;20049;-82
2022/01/20 10:00:58;;;;;;;21.10;18.80;;;;;;;17.70;41.25;101769.84;5031221;28;20163;-82
2022/01/20 10:03:29;;;;;;;21.85;19.48;;;;;;;17.73;40.98;101766.09;5032204;28;20049;-82
2022/01/20 10:06:00;;;;;;;25.02;19.58;;;;;;;17.75;40.98;101761.53;5031586;28;20409;-82
2022/01/20 10:08:33;;;;;;;21.00;18.15;;;;;;;17.78;41.05;101751.50;5032023;28;20046;-83
2022/01/20 10:11:26;;;;;;;21.63;18.35;;;;;;;17.80;41.06;101754.06;5031981;28;20053;-83
2022/01/20 10:14:12;;;;;;;20.92;18.70;;;;;;;17.82;41.15;101764.66;5039939;28;20052;-82
2022/01/20 10:16:50;;;;;;;24.38;20.23;;;;;;;17.83;41.30;101759.22;5032839;28;20034;-82
2022/01/20 10:19:26;;;;;;;21.87;18.10;;;;;;;17.85;41.36;101751.09;5032151;28;20053;-82
2022/01/20 10:21:55;;;;;;;21.45;18.02;;;;;;;17.84;41.42;101758.25;5032951;28;20068;-82
2022/01/20 10:24:40;;;;;;;21.75;19.35;;;;;;;17.85;41.59;101759.13;5046146;28;20417;-83
2022/01/20 10:27:49;;;;;;;19.80;17.80;;;;;;;17.86;41.79;101740.25;5033107;28;20477;-83
2022/01/20 10:30:16;;;;;;;22.55;18.27;;;;;;;17.87;41.63;101749.19;5031916;28;20064;-82
2022/01/20 10:32:52;;;;;;;19.55;17.52;;;;;;;17.87;41.73;101739.31;5031899;28;20065;-83
2022/01/20 10:35:32;;;;;;;23.23;19.15;;;;;;;17.87;41.86;101722.38;5031513;28;20049;-82
2022/01/20 10:38:13;;;;;;;22.85;19.92;;;;;;;17.86;41.87;101710.78;5031555;28;20050;-82
2022/01/20 10:40:56;;;;;;;21.88;19.58;;;;;;;17.88;42.09;101705.34;5016945;28;20061;-82
2022/01/20 10:43:28;;;;;;;23.85;19.73;;;;;;;17.87;42.07;101701.81;5031366;28;20064;-83
2022/01/20 10:46:07;;;;;;;21.77;19.20;;;;;;;17.88;42.04;101702.69;5031421;28;20056;-83
2022/01/20 10:48:38;;;;;;;20.67;17.50;;;;;;;17.88;42.07;101691.97;5033732;28;20037;-83
2022/01/20 10:51:16;;;;;;;22.27;19.10;;;;;;;17.87;42.05;101685.75;5032669;28;20417;-83
2022/01/20 10:53:58;;;;;;;22.60;19.38;;;;;;;17.88;42.16;101681.25;5032620;28;20069;-82
2022/01/20 10:56:27;;;;;;;20.98;18.05;;;;;;;17.88;42.28;101670.53;5031735;28;20057;-82
2022/01/20 10:59:06;;;;;;;23.55;19.27;;;;;;;17.88;42.19;101667.84;5031186;28;20516;-82
2022/01/20 11:01:34;;;;;;;21.08;18.73;;;;;;;17.89;42.37;101666.88;5031052;28;20053;-83
2022/01/20 11:04:03;;;;;;;24.48;20.25;;;;;;;17.88;42.40;101666.03;5029887;28;20064;-82
2022/01/20 11:06:34;;;;;;;23.33;20.58;;;;;;;17.89;42.30;101666.88;5015106;28;20049;-82
2022/01/20 11:09:20;;;;;;;20.50;18.33;;;;;;;17.87;42.38;101669.66;5031032;28;20045;-82
2022/01/20 11:12:11;;;;;;;20.58;18.48;;;;;;;17.88;42.63;101662.50;5010584;28;20077;-83
2022/01/20 11:15:00;;;;;;;22.60;18.15;;;;;;;17.88;42.66;101654.47;5010299;28;20054;-82
2022/01/20 11:17:30;;;;;;;23.15;19.05;;;;;;;17.88;42.58;101643.75;5010123;28;20046;-82
2022/01/20 11:20:11;;;;;;;20.38;18.17;;;;;;;17.88;42.90;101638.38;5010022;28;20053;-82
2022/01/20 11:23:00;;;;;;;20.65;18.08;;;;;;;17.88;42.89;101636.56;5026616;28;20050;-82
2022/01/20 11:25:35;;;;;;;21.40;19.10;;;;;;;17.89;42.81;101624.03;4993934;28;20054;-82
2022/01/20 11:28:29;;;;;;;20.50;18.23;;;;;;;17.88;42.83;101616.97;5008612;28;20050;-82
2022/01/20 11:31:15;;;;;;;20.80;18.20;;;;;;;17.88;42.84;101614.28;5014124;28;20053;-82
2022/01/20 11:33:49;;;;;;;23.05;20.58;;;;;;;17.88;42.60;101606.25;5013454;28;20046;-82
2022/01/20 11:36:27;;;;;;;22.33;19.13;;;;;;;17.87;42.73;101594.66;5014106;28;20054;-81
2022/01/20 11:39:17;;;;;;;25.73;21.17;;;;;;;17.88;42.75;101595.53;5014060;28;20115;-82
2022/01/20 11:41:49;;;;;;;25.02;20.95;;;;;;;17.88;42.50;101598.22;5013710;28;20057;-82
2022/01/20 11:44:19;;;;;;;25.23;20.23;;;;;;;17.87;42.48;101592.00;5014010;28;20050;-82
2022/01/20 11:46:50;;;;;;;23.77;20.27;;;;;;;17.88;42.63;101596.38;5013612;28;20073;-82
2022/01/20 11:49:19;;;;;;;25.25;20.33;;;;;;;17.87;42.67;101602.72;5023741;28;20054;-82
2022/01/20 11:51:59;;;;;;;22.85;20.25;;;;;;;17.89;42.69;101597.22;5035607;28;20049;-82
2022/01/20 11:54:37;;;;;;;24.17;20.85;;;;;;;17.87;42.69;101583.09;5034454;28;20524;-82
2022/01/20 11:57:30;;;;;;;26.05;21.30;;;;;;;17.88;42.68;101582.13;5034456;28;20038;-82
2022/01/20 12:00:00;;;;;;;;;;;;;;;17.87;42.62;101567.88;5034112;28;20053;-82
2022/01/20 12:02:34;;;;;;;23.27;19.92;;;;;;;17.88;42.67;101558.03;5035499;28;20372;-82
2022/01/20 12:05:18;;;;;;;24.27;20.15;;;;;;;17.88;42.85;101550.00;5033888;28;20060;-82
2022/01/20 12:08:06;;;;;;;22.20;19.65;;;;;;;17.88;42.85;101542.81;5034195;28;20045;-82
2022/01/20 12:10:34;;;;;;;27.60;21.55;;;;;;;17.87;42.91;101533.06;5017948;28;20045;-82
2022/01/20 12:13:11;;;;;;;26.60;22.00;;;;;;;17.88;42.87;101526.72;5035048;28;20060;-84
2022/01/20 12:15:50;;;;;;;25.17;22.17;;;;;;;17.89;42.67;101527.59;5035297;28;20437;-83
2022/01/20 12:18:18;;;;;;;24.50;20.65;;;;;;;17.89;42.81;101522.22;5033916;28;20045;-82
2022/01/20 12:20:46;;;;;;;23.38;20.20;;;;;;;17.90;42.71;101521.25;5035140;28;20041;-82
2022/01/20 12:23:13;;;;;;;24.98;21.20;;;;;;;17.89;42.74;101516.88;5033793;28;20056;-82
2022/01/20 12:25:41;;;;;;;22.98;20.40;;;;;;;17.89;42.92;101522.22;5034879;28;20358;-82
2022/01/20 12:28:14;;;;;;;25.60;20.40;;;;;;;17.90;43.08;101513.22;5033525;28;20061;-82
2022/01/20 12:30:50;;;;;;;22.38;19.70;;;;;;;17.89;42.91;101509.69;5033980;28;20212;-83
2022/01/20 12:33:22;;;;;;;23.75;20.02;;;;;;;17.90;42.96;101510.53;5033393;28;20053;-82
2022/01/20 12:35:55;;;;;;;26.02;20.08;;;;;;;17.90;43.11;101500.69;5035457;28;20056;-82
2022/01/20 12:38:26;;;;;;;25.50;19.90;;;;;;;17.90;43.14;101494.47;5035004;28;20374;-82
2022/01/20 12:41:05;;;;;;;25.42;19.85;;;;;;;17.90;43.14;101499.81;5033578;28;20060;-82
2022/01/20 12:43:45;;;;;;;24.00;19.70;;;;;;;17.91;43.11;101493.53;5035068;28;20046;-83
2022/01/20 12:46:19;;;;;;;24.20;20.13;;;;;;;17.90;43.02;101484.59;5033863;28;20050;-82
2022/01/20 12:48:59;;;;;;;;;;;;;;;17.91;43.23;101483.66;5034856;28;20044;-82